Time;durP1;ratioP1;P1;durP2;ratioP2;P2;SDS_P1;SDS_P2;PMS_P1;PMS_P2;Temp;Humidity;BMP_temperature;BMP_pressure;BME280_temperature;BME280_humidity;BME280_pressure;Samples;Min_cycle;Max_cycle;Signal;HPM_P1;HPM_P2
2022/03/18 00:02:01;;;;;;;27.92;13.52;;;;;;;;;;5092348;28;20020;-93
2022/03/18 00:04:26;;;;;;;26.17;11.63;;;;;;;;;;5091776;28;20457;-95
2022/03/18 00:06:52;;;;;;;23.13;11.00;;;;;;;;;;5091714;28;20020;-94
2022/03/18 00:09:17;;;;;;;19.80;9.82;;;;;;;;;;5091662;28;20469;-86
2022/03/18 00:11:42;;;;;;;21.17;10.23;;;;;;;;;;5091951;28;20028;-94
2022/03/18 00:14:07;;;;;;;23.33;10.52;;;;;;;;;;5091775;28;20024;-93
2022/03/18 00:16:32;;;;;;;27.40;10.88;;;;;;;;;;5092179;28;20128;-86
2022/03/18 00:19:00;;;;;;;19.80;9.05;;;;;;;;;;5092010;28;20534;-93
2022/03/18 00:21:26;;;;;;;20.63;9.65;;;;;;;;;;5092185;28;20029;-94
2022/03/18 00:23:51;;;;;;;20.88;10.02;;;;;;;;;;5092013;28;20032;-92
2022/03/18 00:26:16;;;;;;;24.38;10.57;;;;;;;;;;5094904;28;20032;-89
2022/03/18 00:28:42;;;;;;;27.35;12.00;;;;;;;;;;5096263;28;20042;-85
2022/03/18 00:31:08;;;;;;;28.48;11.32;;;;;;;;;;5096216;28;20106;-93
2022/03/18 00:33:34;;;;;;;21.95;10.45;;;;;;;;;;5095935;28;20044;-93
2022/03/18 00:35:59;;;;;;;29.65;11.82;;;;;;;;;;5095975;28;20023;-94
2022/03/18 00:38:24;;;;;;;23.13;11.18;;;;;;;;;;5096252;28;20028;-86
2022/03/18 00:40:50;;;;;;;23.52;11.80;;;;;;;;;;5095961;28;20043;-94
2022/03/18 00:43:16;;;;;;;24.90;11.10;;;;;;;;;;5095793;28;20022;-87
2022/03/18 00:45:41;;;;;;;22.50;11.18;;;;;;;;;;5095805;28;20375;-94
2022/03/18 00:53:34;;;;;;;32.97;14.10;;;;;;;;;;5097071;28;20065;-93
2022/03/18 00:55:59;;;;;;;29.75;13.70;;;;;;;;;;5095617;28;20024;-94
2022/03/18 00:58:24;;;;;;;27.25;11.50;;;;;;;;;;5095397;28;20020;-93
2022/03/18 01:00:50;;;;;;;27.15;13.02;;;;;;;;;;5095285;28;20028;-93
2022/03/18 01:03:15;;;;;;;27.10;12.50;;;;;;;;;;5095645;28;20111;-86
2022/03/18 01:05:41;;;;;;;28.40;13.48;;;;;;;;;;5095581;28;20028;-86
2022/03/18 01:08:06;;;;;;;26.67;13.57;;;;;;;;;;5095598;28;20468;-93
2022/03/18 01:10:31;;;;;;;27.13;12.10;;;;;;;;;;5095145;28;20024;-93
2022/03/18 01:12:57;;;;;;;24.50;10.48;;;;;;;;;;5096373;28;20028;-93
2022/03/18 01:15:22;;;;;;;24.50;11.57;;;;;;;;;;5095473;28;20479;-86
2022/03/18 01:17:47;;;;;;;24.35;10.70;;;;;;;;;;5094905;28;20017;-94
2022/03/18 01:20:12;;;;;;;26.13;12.30;;;;;;;;;;5094577;28;20012;-86
2022/03/18 01:22:38;;;;;;;24.85;11.95;;;;;;;;;;5094805;28;20080;-93
2022/03/18 01:25:03;;;;;;;25.43;12.33;;;;;;;;;;5095393;28;20016;-86
2022/03/18 01:27:28;;;;;;;26.83;12.27;;;;;;;;;;5095163;28;20035;-93
2022/03/18 01:29:54;;;;;;;24.83;12.25;;;;;;;;;;5094967;28;20016;-94
2022/03/18 01:32:19;;;;;;;24.58;11.55;;;;;;;;;;5094963;28;20027;-93
2022/03/18 01:34:44;;;;;;;24.38;12.23;;;;;;;;;;5094834;28;20039;-86
2022/03/18 01:37:09;;;;;;;23.55;12.18;;;;;;;;;;5094355;28;20016;-94
2022/03/18 01:39:35;;;;;;;24.58;11.38;;;;;;;;;;5094991;28;20020;-93
2022/03/18 01:42:00;;;;;;;24.20;10.90;;;;;;;;;;5094698;28;20038;-93
2022/03/18 01:44:25;;;;;;;23.42;11.57;;;;;;;;;;5095773;28;20020;-85
2022/03/18 01:46:50;;;;;;;23.37;11.27;;;;;;;;;;5095547;28;20017;-94
2022/03/18 01:49:16;;;;;;;22.42;10.90;;;;;;;;;;5094586;28;20020;-85
2022/03/18 01:51:41;;;;;;;24.67;11.50;;;;;;;;;;5094839;28;20032;-95
2022/03/18 01:56:51;;;;;;;22.02;10.48;;;;;;;;;;5095429;28;20063;-86
2022/03/18 01:59:16;;;;;;;22.42;11.30;;;;;;;;;;5094242;28;20016;-86
2022/03/18 02:01:41;;;;;;;21.73;10.27;;;;;;;;;;5094576;28;20019;-94
2022/03/18 02:04:06;;;;;;;22.70;10.77;;;;;;;;;;5093994;28;20020;-94
2022/03/18 02:06:32;;;;;;;23.60;10.43;;;;;;;;;;5093582;28;20392;-85
2022/03/18 02:08:57;;;;;;;24.35;10.75;;;;;;;;;;5095040;28;20380;-92
2022/03/18 02:11:23;;;;;;;25.80;12.65;;;;;;;;;;5094240;28;20515;-93
2022/03/18 02:13:49;;;;;;;26.07;13.07;;;;;;;;;;5093511;28;20032;-86
2022/03/18 02:16:14;;;;;;;24.83;11.57;;;;;;;;;;5093358;28;20476;-94
2022/03/18 02:18:39;;;;;;;26.30;12.70;;;;;;;;;;5094036;28;20050;-93
2022/03/18 02:21:04;;;;;;;25.38;11.82;;;;;;;;;;5093950;28;20028;-92
2022/03/18 02:23:30;;;;;;;22.70;11.10;;;;;;;;;;5093872;28;20119;-94
2022/03/18 02:25:55;;;;;;;22.85;11.45;;;;;;;;;;5094127;28;20016;-89
2022/03/18 02:28:21;;;;;;;25.25;11.27;;;;;;;;;;5093951;28;20521;-87
2022/03/18 02:30:46;;;;;;;25.87;11.53;;;;;;;;;;5093776;28;20012;-93
2022/03/18 02:33:11;;;;;;;24.83;12.00;;;;;;;;;;5093830;28;20031;-93
2022/03/18 02:35:36;;;;;;;24.88;11.27;;;;;;;;;;5093472;28;20020;-94
2022/03/18 02:38:01;;;;;;;23.17;11.50;;;;;;;;;;5093511;28;20065;-86
2022/03/18 02:40:27;;;;;;;23.60;10.83;;;;;;;;;;5093536;28;20475;-94
2022/03/18 02:42:52;;;;;;;24.23;11.25;;;;;;;;;;5093328;28;20020;-94
2022/03/18 02:45:18;;;;;;;24.02;11.80;;;;;;;;;;5094633;28;20020;-94
2022/03/18 02:47:43;;;;;;;24.92;11.25;;;;;;;;;;5093250;28;20405;-93
2022/03/18 02:50:08;;;;;;;25.48;11.75;;;;;;;;;;5093523;28;20028;-93
2022/03/18 02:52:34;;;;;;;24.83;12.35;;;;;;;;;;5093125;28;20038;-89
2022/03/18 02:54:59;;;;;;;23.85;11.25;;;;;;;;;;5093241;28;20043;-94
2022/03/18 02:57:24;;;;;;;23.48;10.60;;;;;;;;;;5093188;28;20111;-92
2022/03/18 02:59:49;;;;;;;24.65;12.27;;;;;;;;;;5093066;28;20479;-94
2022/03/18 03:02:15;;;;;;;26.50;11.23;;;;;;;;;;5092837;28;20460;-94
2022/03/18 03:07:59;;;;;;;21.47;10.30;;;;;;;;;;5092949;28;20028;-91
2022/03/18 03:10:11;;;;;;;27.27;12.25;;;;;;;;;;5094468;28;20035;-93
2022/03/18 03:12:37;;;;;;;23.10;10.83;;;;;;;;;;5093119;28;20020;-91
2022/03/18 03:15:02;;;;;;;27.30;11.07;;;;;;;;;;5093726;28;20057;-86
2022/03/18 03:17:27;;;;;;;22.33;10.57;;;;;;;;;;5092580;28;20157;-94
2022/03/18 03:19:54;;;;;;;22.30;10.67;;;;;;;;;;5092726;28;20396;-86
2022/03/18 03:22:20;;;;;;;22.23;11.20;;;;;;;;;;5093544;28;20087;-94
2022/03/18 03:24:45;;;;;;;26.58;11.88;;;;;;;;;;5093051;28;20531;-86
2022/03/18 03:27:10;;;;;;;23.90;10.30;;;;;;;;;;5092609;28;20020;-88
2022/03/18 03:29:35;;;;;;;25.13;11.63;;;;;;;;;;5094009;28;20016;-93
2022/03/18 03:32:00;;;;;;;21.87;10.77;;;;;;;;;;5092763;28;20438;-93
2022/03/18 03:34:26;;;;;;;25.38;11.52;;;;;;;;;;5091961;28;20039;-85
2022/03/18 03:36:52;;;;;;;24.10;11.47;;;;;;;;;;5092610;28;20051;-94
2022/03/18 03:39:17;;;;;;;25.20;11.70;;;;;;;;;;5092459;28;20035;-86
2022/03/18 03:41:42;;;;;;;27.83;12.68;;;;;;;;;;5093924;28;20440;-94
2022/03/18 03:44:07;;;;;;;27.65;11.18;;;;;;;;;;5092800;28;20028;-84
2022/03/18 03:46:33;;;;;;;22.08;10.02;;;;;;;;;;5092395;28;20468;-86
2022/03/18 03:48:59;;;;;;;24.95;10.98;;;;;;;;;;5092518;28;20028;-93
2022/03/18 03:51:24;;;;;;;25.07;10.80;;;;;;;;;;5092186;28;20024;-94
2022/03/18 03:53:49;;;;;;;20.37;8.97;;;;;;;;;;5091930;28;20028;-93
2022/03/18 03:56:14;;;;;;;22.98;9.55;;;;;;;;;;5092118;28;20128;-93
2022/03/18 03:58:40;;;;;;;21.20;9.20;;;;;;;;;;5092353;28;20116;-86
2022/03/18 04:01:05;;;;;;;34.35;16.08;;;;;;;;;;5091953;28;20052;-93
2022/03/18 04:03:30;;;;;;;21.25;10.68;;;;;;;;;;5092010;28;20443;-93
2022/03/18 04:05:55;;;;;;;21.53;10.00;;;;;;;;;;5092032;28;20012;-94
2022/03/18 04:08:20;;;;;;;25.38;11.55;;;;;;;;;;5091828;28;20051;-87
2022/03/18 04:10:46;;;;;;;24.70;12.40;;;;;;;;;;5092181;28;20040;-86
2022/03/18 04:13:11;;;;;;;24.38;11.50;;;;;;;;;;5092451;28;20051;-93
2022/03/18 04:15:36;;;;;;;23.47;10.97;;;;;;;;;;5092175;28;20039;-94
2022/03/18 04:18:01;;;;;;;26.07;10.83;;;;;;;;;;5091744;28;20016;-86
2022/03/18 04:20:30;;;;;;;25.77;13.13;;;;;;;;;;5091998;28;20107;-94
2022/03/18 04:22:55;;;;;;;26.00;12.20;;;;;;;;;;5091541;28;20016;-94
2022/03/18 04:25:20;;;;;;;25.60;11.65;;;;;;;;;;5092076;28;20487;-90
2022/03/18 04:27:46;;;;;;;27.02;11.90;;;;;;;;;;5091805;28;20027;-93
2022/03/18 04:30:12;;;;;;;26.87;12.73;;;;;;;;;;5091978;28;20448;-85
2022/03/18 04:32:38;;;;;;;29.30;16.77;;;;;;;;;;5091469;28;20020;-93
2022/03/18 04:35:04;;;;;;;26.60;14.27;;;;;;;;;;5092987;28;20031;-85
2022/03/18 04:37:29;;;;;;;26.27;11.83;;;;;;;;;;5091650;28;20020;-93
2022/03/18 04:39:54;;;;;;;24.80;12.07;;;;;;;;;;5091480;28;20028;-93
2022/03/18 04:42:20;;;;;;;24.85;12.05;;;;;;;;;;5091477;28;20056;-92
2022/03/18 04:44:45;;;;;;;22.40;10.93;;;;;;;;;;5091788;28;20468;-85
2022/03/18 04:47:11;;;;;;;22.47;10.07;;;;;;;;;;5091767;28;20021;-94
2022/03/18 04:49:36;;;;;;;24.77;10.10;;;;;;;;;;5091932;28;20016;-93
2022/03/18 04:52:01;;;;;;;19.20;9.43;;;;;;;;;;5091559;28;20055;-93
2022/03/18 04:54:26;;;;;;;21.10;9.50;;;;;;;;;;5091375;28;20062;-92
2022/03/18 04:59:36;;;;;;;22.20;10.07;;;;;;;;;;5093187;28;20063;-93
2022/03/18 05:02:01;;;;;;;20.50;9.97;;;;;;;;;;5092012;28;20035;-89
2022/03/18 05:04:26;;;;;;;20.63;8.60;;;;;;;;;;5091548;28;20028;-93
2022/03/18 05:06:51;;;;;;;21.67;8.90;;;;;;;;;;5091706;28;20460;-93
2022/03/18 05:09:16;;;;;;;21.13;9.37;;;;;;;;;;5076616;28;20539;-93
2022/03/18 05:11:42;;;;;;;21.97;9.60;;;;;;;;;;5090433;28;20353;-93
2022/03/18 05:14:07;;;;;;;17.87;8.93;;;;;;;;;;5095059;28;20426;-85
2022/03/18 05:16:32;;;;;;;17.63;7.87;;;;;;;;;;5094943;28;20525;-85
2022/03/18 05:18:58;;;;;;;20.10;8.77;;;;;;;;;;5095011;28;20430;-94
2022/03/18 05:21:23;;;;;;;20.42;8.77;;;;;;;;;;5095237;28;20442;-93
2022/03/18 05:23:48;;;;;;;20.23;9.07;;;;;;;;;;5095426;28;20468;-93
2022/03/18 05:26:13;;;;;;;17.93;8.33;;;;;;;;;;5095193;28;20024;-93
2022/03/18 05:28:39;;;;;;;20.30;8.60;;;;;;;;;;5094495;28;20023;-94
2022/03/18 05:31:04;;;;;;;26.70;8.48;;;;;;;;;;5094829;28;20521;-95
2022/03/18 05:33:29;;;;;;;20.07;9.10;;;;;;;;;;5094425;28;20036;-94
2022/03/18 05:35:55;;;;;;;18.97;9.60;;;;;;;;;;5093986;28;20020;-85
2022/03/18 05:38:20;;;;;;;20.67;9.63;;;;;;;;;;5094086;28;20051;-85
2022/03/18 05:40:45;;;;;;;20.67;10.50;;;;;;;;;;5094171;28;20061;-85
2022/03/18 05:43:10;;;;;;;23.07;10.80;;;;;;;;;;5094826;28;20460;-94
2022/03/18 05:45:36;;;;;;;19.47;9.03;;;;;;;;;;5094137;28;20069;-94
2022/03/18 05:48:01;;;;;;;20.23;9.63;;;;;;;;;;5094403;28;20024;-90
2022/03/18 05:50:26;;;;;;;25.30;14.20;;;;;;;;;;5094130;28;20024;-93
2022/03/18 05:52:51;;;;;;;23.97;10.90;;;;;;;;;;5093856;28;20464;-86
2022/03/18 05:55:16;;;;;;;21.70;8.87;;;;;;;;;;5092337;28;20460;-86
2022/03/18 05:57:42;;;;;;;19.70;9.95;;;;;;;;;;5093820;28;20076;-93
2022/03/18 06:00:07;;;;;;;19.25;9.82;;;;;;;;;;5095524;28;20024;-94
2022/03/18 06:02:33;;;;;;;93.55;41.50;;;;;;;;;;5094145;28;20081;-94
2022/03/18 06:04:59;;;;;;;90.10;38.20;;;;;;;;;;5094043;28;20055;-94
2022/03/18 06:07:24;;;;;;;66.18;30.58;;;;;;;;;;5095147;28;20039;-94
2022/03/18 06:12:33;;;;;;;40.13;17.70;;;;;;;;;;5095131;28;20426;-94
2022/03/18 06:14:58;;;;;;;30.23;14.43;;;;;;;;;;5094219;28;20036;-93
2022/03/18 06:17:23;;;;;;;61.40;26.52;;;;;;;;;;5093828;28;20046;-93
2022/03/18 06:19:49;;;;;;;80.43;37.80;;;;;;;;;;5094038;28;20024;-94
2022/03/18 06:22:14;;;;;;;29.10;14.60;;;;;;;;;;5094483;28;20016;-94
2022/03/18 06:24:40;;;;;;;27.55;9.98;;;;;;;;;;5093791;28;20384;-89
2022/03/18 06:27:05;;;;;;;20.13;10.53;;;;;;;;;;5094081;28;20388;-93
2022/03/18 06:29:31;;;;;;;22.75;11.00;;;;;;;;;;5094786;28;20059;-94
2022/03/18 06:31:57;;;;;;;25.37;11.73;;;;;;;;;;5093271;28;20020;-94
2022/03/18 06:34:22;;;;;;;25.20;11.13;;;;;;;;;;5093455;28;20032;-92
2022/03/18 06:36:49;;;;;;;21.77;10.00;;;;;;;;;;5093828;28;20050;-93
2022/03/18 06:39:14;;;;;;;27.93;13.07;;;;;;;;;;5093710;28;20024;-93
2022/03/18 06:41:40;;;;;;;25.13;12.45;;;;;;;;;;5093944;28;20425;-93
2022/03/18 06:44:08;;;;;;;21.40;10.80;;;;;;;;;;5093661;28;20492;-94
2022/03/18 06:46:33;;;;;;;18.80;9.57;;;;;;;;;;5093666;28;20012;-93
2022/03/18 06:48:59;;;;;;;20.35;10.15;;;;;;;;;;5093789;28;20035;-93
2022/03/18 06:51:24;;;;;;;18.27;8.93;;;;;;;;;;5093790;28;20024;-92
2022/03/18 06:53:49;;;;;;;23.08;10.73;;;;;;;;;;5093609;28;20028;-93
2022/03/18 06:56:15;;;;;;;24.90;9.57;;;;;;;;;;5094521;28;20052;-93
2022/03/18 06:58:40;;;;;;;21.75;10.18;;;;;;;;;;5093331;28;20024;-93
2022/03/18 07:01:06;;;;;;;22.08;12.93;;;;;;;;;;5093341;28;20361;-93
2022/03/18 07:03:31;;;;;;;27.98;14.85;;;;;;;;;;5093042;28;20020;-92
2022/03/18 07:05:57;;;;;;;42.97;19.55;;;;;;;;;;5093211;28;20027;-88
2022/03/18 07:08:22;;;;;;;38.00;17.77;;;;;;;;;;5092901;28;20048;-92
2022/03/18 07:10:47;;;;;;;34.88;17.55;;;;;;;;;;5092820;28;20027;-92
2022/03/18 07:13:14;;;;;;;74.18;31.98;;;;;;;;;;5093145;28;20055;-92
2022/03/18 07:15:39;;;;;;;64.07;29.50;;;;;;;;;;5094258;28;20016;-92
2022/03/18 07:18:04;;;;;;;43.25;23.02;;;;;;;;;;5092760;28;20024;-90
2022/03/18 07:20:31;;;;;;;39.45;20.30;;;;;;;;;;5093222;28;20474;-92
2022/03/18 07:22:59;;;;;;;44.60;22.20;;;;;;;;;;5092803;28;20066;-92
2022/03/18 07:25:25;;;;;;;37.33;20.00;;;;;;;;;;5093048;28;20031;-93
2022/03/18 07:27:50;;;;;;;36.35;17.48;;;;;;;;;;5093679;28;20024;-92
2022/03/18 07:30:15;;;;;;;28.95;14.60;;;;;;;;;;5092944;28;20418;-85
2022/03/18 07:32:40;;;;;;;30.52;15.20;;;;;;;;;;5092903;28;20127;-92
2022/03/18 07:35:06;;;;;;;24.17;12.75;;;;;;;;;;5091739;28;20063;-87
2022/03/18 07:37:31;;;;;;;23.33;11.15;;;;;;;;;;5091514;28;20102;-93
2022/03/18 07:39:56;;;;;;;24.50;12.90;;;;;;;;;;5092132;28;20028;-86
2022/03/18 07:42:21;;;;;;;25.83;10.65;;;;;;;;;;5093546;28;20460;-93
2022/03/18 07:44:46;;;;;;;22.25;9.45;;;;;;;;;;5092128;28;20020;-92
2022/03/18 07:47:12;;;;;;;16.52;7.82;;;;;;;;;;5092020;28;20024;-93
2022/03/18 07:49:37;;;;;;;15.73;7.47;;;;;;;;;;5092163;28;20031;-92
2022/03/18 07:52:02;;;;;;;16.25;6.88;;;;;;;;;;5090780;28;20024;-91
2022/03/18 07:54:29;;;;;;;13.00;6.40;;;;;;;;;;5079407;28;20104;-92
2022/03/18 07:56:54;;;;;;;15.20;6.80;;;;;;;;;;5091365;28;20112;-94
2022/03/18 07:59:19;;;;;;;16.23;6.78;;;;;;;;;;5092859;28;20055;-93
2022/03/18 08:01:44;;;;;;;13.43;6.78;;;;;;;;;;5091860;28;20065;-93
2022/03/18 08:04:12;;;;;;;10.52;5.07;;;;;;;;;;5090109;28;20032;-94
2022/03/18 08:06:38;;;;;;;14.18;5.18;;;;;;;;;;5088931;28;20016;-93
2022/03/18 08:09:03;;;;;;;12.07;5.28;;;;;;;;;;5071869;28;20492;-93
2022/03/18 08:11:28;;;;;;;9.45;4.97;;;;;;;;;;5071953;28;20017;-94
2022/03/18 08:13:54;;;;;;;14.35;4.90;;;;;;;;;;5080999;28;20080;-94
2022/03/18 08:16:19;;;;;;;13.80;4.95;;;;;;;;;;5090278;28;20024;-93
2022/03/18 08:18:44;;;;;;;12.50;4.88;;;;;;;;;;5091747;28;20065;-94
2022/03/18 08:21:10;;;;;;;11.30;5.95;;;;;;;;;;5091980;28;20285;-94
2022/03/18 08:23:35;;;;;;;10.57;4.55;;;;;;;;;;5091487;28;20016;-94
2022/03/18 08:26:01;;;;;;;12.52;4.90;;;;;;;;;;5091667;28;20460;-94
2022/03/18 08:28:26;;;;;;;11.88;5.00;;;;;;;;;;5090037;28;20024;-94
2022/03/18 08:30:51;;;;;;;14.48;5.00;;;;;;;;;;5089956;28;20086;-93
2022/03/18 08:33:16;;;;;;;17.60;5.32;;;;;;;;;;5087968;28;20028;-94
2022/03/18 08:35:42;;;;;;;15.15;5.53;;;;;;;;;;5092603;28;20012;-94
2022/03/18 08:38:09;;;;;;;9.80;5.72;;;;;;;;;;5091179;28;20035;-94
2022/03/18 08:40:36;;;;;;;13.32;5.43;;;;;;;;;;5092241;28;20027;-93
2022/03/18 08:43:05;;;;;;;14.40;5.40;;;;;;;;;;5092655;28;20457;-94
2022/03/18 08:45:31;;;;;;;16.33;5.65;;;;;;;;;;5091582;28;20099;-91
2022/03/18 08:47:56;;;;;;;17.67;6.95;;;;;;;;;;5095348;28;20043;-94
2022/03/18 08:50:22;;;;;;;16.33;5.80;;;;;;;;;;5096628;28;20017;-93
2022/03/18 08:52:49;;;;;;;17.40;6.10;;;;;;;;;;5096204;28;20395;-93
2022/03/18 08:55:15;;;;;;;14.82;5.28;;;;;;;;;;5095387;28;20024;-94
2022/03/18 08:57:40;;;;;;;15.50;4.72;;;;;;;;;;5095994;28;20485;-94
2022/03/18 09:00:07;;;;;;;12.07;4.25;;;;;;;;;;5094819;28;20056;-94
2022/03/18 09:02:33;;;;;;;9.27;4.07;;;;;;;;;;5094966;28;20073;-94
2022/03/18 09:04:58;;;;;;;13.70;5.10;;;;;;;;;;5094731;28;20027;-94
2022/03/18 09:07:23;;;;;;;11.05;4.35;;;;;;;;;;5094384;28;20016;-93
2022/03/18 09:09:48;;;;;;;12.20;4.07;;;;;;;;;;5095230;28;20050;-92
2022/03/18 09:12:16;;;;;;;9.15;4.40;;;;;;;;;;5095670;28;20456;-93
2022/03/18 09:14:41;;;;;;;10.23;4.43;;;;;;;;;;5094668;28;20040;-93
2022/03/18 09:17:06;;;;;;;11.13;4.03;;;;;;;;;;5094513;28;20027;-93
2022/03/18 09:19:32;;;;;;;17.33;5.85;;;;;;;;;;5094282;28;20456;-94
2022/03/18 09:21:57;;;;;;;12.40;4.53;;;;;;;;;;5093967;28;20031;-94
2022/03/18 09:24:22;;;;;;;12.38;4.38;;;;;;;;;;5090549;28;20028;-95
2022/03/18 09:26:47;;;;;;;12.32;4.90;;;;;;;;;;5093823;28;20047;-95
2022/03/18 09:29:12;;;;;;;13.32;3.58;;;;;;;;;;5093460;28;20096;-94
2022/03/18 09:31:38;;;;;;;8.55;3.97;;;;;;;;;;5094409;28;20103;-95
2022/03/18 09:34:03;;;;;;;10.70;3.95;;;;;;;;;;5093575;28;20150;-95
2022/03/18 09:36:28;;;;;;;10.52;3.78;;;;;;;;;;5091012;28;20374;-93
2022/03/18 09:38:55;;;;;;;7.95;3.50;;;;;;;;;;5094255;28;20019;-94
2022/03/18 09:41:20;;;;;;;10.15;3.45;;;;;;;;;;5093743;28;20190;-94
2022/03/18 09:43:45;;;;;;;8.38;4.55;;;;;;;;;;5093226;28;20115;-94
2022/03/18 09:46:11;;;;;;;9.18;3.60;;;;;;;;;;5090154;28;20047;-94
2022/03/18 09:48:37;;;;;;;6.32;3.65;;;;;;;;;;5074022;28;20455;-94
2022/03/18 09:51:03;;;;;;;8.57;3.15;;;;;;;;;;5073059;28;20017;-91
2022/03/18 09:53:28;;;;;;;7.22;2.80;;;;;;;;;;5073245;28;20029;-94
2022/03/18 09:55:53;;;;;;;7.85;3.10;;;;;;;;;;5084102;28;20042;-96
2022/03/18 09:58:19;;;;;;;7.00;2.75;;;;;;;;;;5092359;28;20021;-96
2022/03/18 10:00:45;;;;;;;7.03;2.65;;;;;;;;;;5093223;28;20014;-94
2022/03/18 10:03:11;;;;;;;9.60;2.85;;;;;;;;;;5094644;28;20016;-96
2022/03/18 10:05:47;;;;;;;6.68;2.40;;;;;;;;;;5092298;28;20020;-91
2022/03/18 10:08:13;;;;;;;4.97;2.08;;;;;;;;;;5092667;28;20066;-92
2022/03/18 10:10:46;;;;;;;6.82;2.70;;;;;;;;;;5093470;28;20039;-96
2022/03/18 10:13:12;;;;;;;7.60;2.80;;;;;;;;;;5093559;28;20032;-94
2022/03/18 10:15:38;;;;;;;12.88;2.70;;;;;;;;;;5093168;28;20065;-94
2022/03/18 10:18:04;;;;;;;8.05;2.67;;;;;;;;;;5092588;28;20024;-93
2022/03/18 10:20:29;;;;;;;4.78;2.50;;;;;;;;;;5092435;28;20028;-93
2022/03/18 10:23:01;;;;;;;8.02;2.83;;;;;;;;;;5093870;28;20020;-94
2022/03/18 10:25:45;;;;;;;10.05;3.15;;;;;;;;;;5089533;28;20472;-95
2022/03/18 10:28:10;;;;;;;10.52;2.95;;;;;;;;;;5093592;28;20012;-93
2022/03/18 10:30:36;;;;;;;10.07;3.75;;;;;;;;;;5092542;28;20244;-95
2022/03/18 10:33:01;;;;;;;6.18;3.20;;;;;;;;;;5092689;28;20161;-95
2022/03/18 10:38:26;;;;;;;6.78;2.78;;;;;;;;;;5093711;28;20507;-95
2022/03/18 10:40:53;;;;;;;7.85;2.83;;;;;;;;;;5093524;28;20031;-93
2022/03/18 10:43:18;;;;;;;7.35;3.00;;;;;;;;;;5092021;28;20031;-91
2022/03/18 10:46:00;;;;;;;7.53;2.28;;;;;;;;;;5092063;28;20024;-95
2022/03/18 10:48:25;;;;;;;4.93;2.70;;;;;;;;;;5092471;28;20487;-93
2022/03/18 10:51:00;;;;;;;5.10;2.35;;;;;;;;;;5091269;28;20016;-94
2022/03/18 10:53:31;;;;;;;9.18;2.97;;;;;;;;;;5091647;28;20185;-93
2022/03/18 10:55:59;;;;;;;12.18;4.05;;;;;;;;;;5092019;28;20020;-94
2022/03/18 10:58:24;;;;;;;7.40;2.97;;;;;;;;;;5092002;28;20028;-92
2022/03/18 11:00:50;;;;;;;8.13;2.95;;;;;;;;;;5091416;28;20035;-92
2022/03/18 11:03:15;;;;;;;9.50;3.40;;;;;;;;;;5092309;28;20039;-93
2022/03/18 11:05:41;;;;;;;5.03;2.90;;;;;;;;;;5092092;28;20030;-94
2022/03/18 11:08:10;;;;;;;10.90;3.85;;;;;;;;;;5094180;28;20472;-95
2022/03/18 11:13:21;;;;;;;17.60;4.72;;;;;;;;;;5093769;28;20178;-88
2022/03/18 11:15:46;;;;;;;10.93;4.32;;;;;;;;;;5092101;28;20027;-88
2022/03/18 11:18:13;;;;;;;8.88;3.42;;;;;;;;;;5091643;28;20016;-88
2022/03/18 11:20:45;;;;;;;9.70;3.13;;;;;;;;;;5084461;28;20324;-88
2022/03/18 11:23:20;;;;;;;12.25;4.20;;;;;;;;;;5090805;28;20388;-88
2022/03/18 11:25:46;;;;;;;8.85;3.10;;;;;;;;;;5084206;28;20028;-87
2022/03/18 11:28:14;;;;;;;7.50;2.97;;;;;;;;;;5071756;28;20082;-87
2022/03/18 11:30:41;;;;;;;8.80;3.20;;;;;;;;;;5084570;28;20431;-87
2022/03/18 11:33:09;;;;;;;8.85;3.35;;;;;;;;;;5091618;28;20028;-87
2022/03/18 11:35:53;;;;;;;7.82;3.20;;;;;;;;;;5092334;28;20027;-87
2022/03/18 11:38:19;;;;;;;7.45;2.90;;;;;;;;;;5091171;28;20019;-87
2022/03/18 11:40:51;;;;;;;5.97;2.67;;;;;;;;;;5091498;28;20058;-87
2022/03/18 11:43:29;;;;;;;8.13;3.17;;;;;;;;;;5088030;28;20032;-87
2022/03/18 11:46:17;;;;;;;6.18;3.03;;;;;;;;;;5091163;28;20016;-87
2022/03/18 11:48:42;;;;;;;7.13;3.35;;;;;;;;;;5092403;28;20012;-87
2022/03/18 11:51:26;;;;;;;15.43;3.75;;;;;;;;;;5091640;28;20023;-87
2022/03/18 11:53:54;;;;;;;7.10;3.30;;;;;;;;;;5088342;28;20545;-87
2022/03/18 11:56:21;;;;;;;3.28;2.28;;;;;;;;;;5083703;28;20066;-85
2022/03/18 11:58:47;;;;;;;6.90;2.60;;;;;;;;;;5088085;28;20090;-86
2022/03/18 12:01:42;;;;;;;7.00;3.17;;;;;;;;;;5087823;28;20016;-87
2022/03/18 12:04:07;;;;;;;7.38;3.30;;;;;;;;;;5074461;28;20123;-87
2022/03/18 12:06:33;;;;;;;8.68;3.47;;;;;;;;;;5072951;28;20455;-86
2022/03/18 12:08:59;;;;;;;7.90;2.95;;;;;;;;;;5103854;28;20372;-87
2022/03/18 12:11:37;;;;;;;9.77;3.22;;;;;;;;;;5070724;28;20025;-87
2022/03/18 12:14:04;;;;;;;9.70;2.97;;;;;;;;;;5070501;28;20476;-87
2022/03/18 12:16:30;;;;;;;6.65;2.50;;;;;;;;;;5070864;28;20052;-87
2022/03/18 12:18:59;;;;;;;8.88;3.22;;;;;;;;;;5070867;28;20028;-87
2022/03/18 12:21:35;;;;;;;5.93;2.05;;;;;;;;;;5072019;28;20376;-86
2022/03/18 12:24:07;;;;;;;8.75;2.75;;;;;;;;;;5075043;28;20082;-87
2022/03/18 12:26:33;;;;;;;6.13;2.55;;;;;;;;;;5075352;28;20016;-86
2022/03/18 12:28:58;;;;;;;11.18;2.88;;;;;;;;;;5075149;28;20388;-86
2022/03/18 12:31:24;;;;;;;7.85;2.83;;;;;;;;;;5074681;28;20020;-86
2022/03/18 12:33:56;;;;;;;7.60;2.83;;;;;;;;;;5074300;28;20086;-86
2022/03/18 12:36:25;;;;;;;8.65;2.78;;;;;;;;;;5074730;28;20032;-87
2022/03/18 12:38:50;;;;;;;7.15;2.60;;;;;;;;;;5075985;28;20021;-87
2022/03/18 12:41:18;;;;;;;3.85;2.50;;;;;;;;;;5075223;28;20024;-87
2022/03/18 12:43:43;;;;;;;6.60;2.85;;;;;;;;;;5074973;28;20090;-87
2022/03/18 12:46:10;;;;;;;5.35;2.08;;;;;;;;;;5074425;28;20457;-90
2022/03/18 12:48:35;;;;;;;5.20;2.45;;;;;;;;;;5076591;28;20050;-91
2022/03/18 12:51:03;;;;;;;9.00;3.70;;;;;;;;;;5075422;28;20089;-92
2022/03/18 12:53:30;;;;;;;3.08;1.77;;;;;;;;;;5075269;28;20119;-91
2022/03/18 12:55:57;;;;;;;5.85;2.53;;;;;;;;;;5076299;28;20020;-86
2022/03/18 12:58:23;;;;;;;7.82;3.08;;;;;;;;;;5074813;28;20396;-92
2022/03/18 13:00:54;;;;;;;5.28;2.15;;;;;;;;;;5076509;28;20035;-92
2022/03/18 13:03:29;;;;;;;8.32;2.00;;;;;;;;;;5076711;28;20012;-92
2022/03/18 13:06:02;;;;;;;8.10;3.00;;;;;;;;;;5075036;28;20025;-91
2022/03/18 13:08:29;;;;;;;4.55;2.20;;;;;;;;;;5074943;28;20016;-91
2022/03/18 13:10:55;;;;;;;4.53;1.90;;;;;;;;;;5076443;28;20024;-86
2022/03/18 13:13:20;;;;;;;4.53;2.67;;;;;;;;;;5076473;28;20473;-90
2022/03/18 13:15:51;;;;;;;3.58;2.03;;;;;;;;;;5076674;28;20020;-92
2022/03/18 13:18:17;;;;;;;;;;;;;;;;;;5075513;28;20572;-92
2022/03/18 13:20:43;;;;;;;5.82;2.42;;;;;;;;;;5074772;28;19950;-92
2022/03/18 13:23:12;;;;;;;6.00;2.78;;;;;;;;;;5074744;28;20017;-88
2022/03/18 13:25:40;;;;;;;3.25;2.13;;;;;;;;;;5075586;28;20017;-90
2022/03/18 13:28:07;;;;;;;8.10;2.60;;;;;;;;;;5074602;28;20017;-92
2022/03/18 13:33:17;;;;;;;3.80;2.10;;;;;;;;;;5074542;28;20036;-92
2022/03/18 13:35:45;;;;;;;6.05;2.25;;;;;;;;;;5074656;28;20024;-90
2022/03/18 13:38:11;;;;;;;8.07;2.13;;;;;;;;;;5108423;28;20024;-89
2022/03/18 13:40:37;;;;;;;6.07;2.55;;;;;;;;;;5074287;28;20101;-92
2022/03/18 13:43:07;;;;;;;5.25;1.95;;;;;;;;;;5075341;28;20055;-90
2022/03/18 13:45:33;;;;;;;4.00;1.90;;;;;;;;;;5075508;28;20028;-92
2022/03/18 13:47:58;;;;;;;6.78;2.42;;;;;;;;;;5075232;28;20038;-91
2022/03/18 13:50:24;;;;;;;6.55;2.20;;;;;;;;;;5075077;28;20017;-91
2022/03/18 13:52:50;;;;;;;6.65;2.40;;;;;;;;;;5074498;28;20025;-84
2022/03/18 13:55:32;;;;;;;5.72;2.40;;;;;;;;;;5074120;28;20094;-90
2022/03/18 13:57:57;;;;;;;8.45;2.97;;;;;;;;;;5074352;28;20369;-90
2022/03/18 14:00:30;;;;;;;12.13;2.83;;;;;;;;;;5075177;28;20051;-90
2022/03/18 14:03:06;;;;;;;8.40;3.03;;;;;;;;;;5073641;28;20009;-91
2022/03/18 14:05:32;;;;;;;7.07;2.65;;;;;;;;;;5073858;28;20032;-91
2022/03/18 14:07:59;;;;;;;5.80;2.67;;;;;;;;;;5074855;28;20013;-90
2022/03/18 14:10:34;;;;;;;5.95;2.90;;;;;;;;;;5074125;28;20504;-90
2022/03/18 14:13:05;;;;;;;6.65;2.80;;;;;;;;;;5074542;28;20111;-90
2022/03/18 14:15:30;;;;;;;;;;;;;;;;;;5075638;28;20016;-91
2022/03/18 14:17:56;;;;;;;6.40;2.15;;;;;;;;;;5073980;28;19927;-91
2022/03/18 14:20:22;;;;;;;8.38;2.70;;;;;;;;;;5074221;28;20460;-85
2022/03/18 14:22:52;;;;;;;9.82;2.50;;;;;;;;;;5073503;28;20024;-90
2022/03/18 14:25:17;;;;;;;8.63;2.67;;;;;;;;;;5074795;28;20028;-91
2022/03/18 14:27:53;;;;;;;6.18;2.15;;;;;;;;;;5073551;28;20020;-86
2022/03/18 14:30:23;;;;;;;6.15;2.25;;;;;;;;;;5071579;28;20107;-89
2022/03/18 14:32:52;;;;;;;12.90;4.43;;;;;;;;;;5084877;28;20036;-90
2022/03/18 14:35:18;;;;;;;3.95;2.10;;;;;;;;;;5092737;28;20039;-89
2022/03/18 14:37:44;;;;;;;4.63;2.20;;;;;;;;;;5093362;28;20440;-91
2022/03/18 14:40:11;;;;;;;6.80;2.83;;;;;;;;;;5091202;28;20028;-92
2022/03/18 14:42:42;;;;;;;3.20;2.10;;;;;;;;;;5090109;28;20031;-90
2022/03/18 14:45:08;;;;;;;5.30;1.95;;;;;;;;;;5091214;28;20498;-89
2022/03/18 14:47:34;;;;;;;7.30;2.90;;;;;;;;;;5092890;28;20472;-91
2022/03/18 14:49:59;;;;;;;5.70;1.85;;;;;;;;;;5091888;28;20016;-90